TAF LFOH
AMD LFOH 081900Z 0819/0912 CNL=
METAR LFOH
LFOH 082100Z AUTO 24013KT CAVOK 06/03 Q1003=
LFOH 082030Z AUTO 25015KT 9999 FEW039/// SCT054/// BKN088/// ///TCU 06/03 Q1002=
LFOH 082000Z AUTO 24016KT CAVOK 06/03 Q1002=
LFOH 081930Z AUTO 24016KT CAVOK 06/03 Q1002=
LFOH 081900Z AUTO 24017KT CAVOK 06/03 Q1001 TEMPO 25020G30KT 2000 SHRA BKN013 BKN020CB=
WC LFOH
WS LFOH
WV LFOH